sensor_id;sensor_type;location;lat;lon;timestamp;P1;durP1;ratioP1;P2;durP2;ratioP2
53549;SDS011;67273;52.914;-0.982;2023-05-10T00:01:37;4.32;;;2.20;;
53549;SDS011;67273;52.914;-0.982;2023-05-10T00:04:03;4.65;;;2.22;;
53549;SDS011;67273;52.914;-0.982;2023-05-10T00:06:30;4.55;;;2.28;;
53549;SDS011;67273;52.914;-0.982;2023-05-10T00:08:56;5.10;;;2.30;;
53549;SDS011;67273;52.914;-0.982;2023-05-10T00:11:23;4.22;;;2.20;;
53549;SDS011;67273;52.914;-0.982;2023-05-10T00:13:48;4.78;;;2.50;;
53549;SDS011;67273;52.914;-0.982;2023-05-10T00:16:14;3.38;;;1.73;;
53549;SDS011;67273;52.914;-0.982;2023-05-10T00:18:40;4.20;;;2.15;;
53549;SDS011;67273;52.914;-0.982;2023-05-10T00:21:06;3.55;;;1.92;;
53549;SDS011;67273;52.914;-0.982;2023-05-10T00:23:33;4.35;;;2.10;;
53549;SDS011;67273;52.914;-0.982;2023-05-10T00:25:59;4.07;;;2.10;;
53549;SDS011;67273;52.914;-0.982;2023-05-10T00:28:24;3.78;;;1.90;;
53549;SDS011;67273;52.914;-0.982;2023-05-10T00:30:52;3.97;;;2.10;;
53549;SDS011;67273;52.914;-0.982;2023-05-10T00:33:18;3.58;;;2.00;;
53549;SDS011;67273;52.914;-0.982;2023-05-10T00:35:43;3.35;;;1.88;;
53549;SDS011;67273;52.914;-0.982;2023-05-10T00:38:09;4.13;;;1.90;;
53549;SDS011;67273;52.914;-0.982;2023-05-10T00:40:36;4.00;;;2.03;;
53549;SDS011;67273;52.914;-0.982;2023-05-10T00:43:06;3.65;;;1.90;;
53549;SDS011;67273;52.914;-0.982;2023-05-10T00:45:31;2.90;;;1.75;;
53549;SDS011;67273;52.914;-0.982;2023-05-10T00:47:58;3.33;;;2.03;;
53549;SDS011;67273;52.914;-0.982;2023-05-10T00:50:25;3.65;;;2.17;;
53549;SDS011;67273;52.914;-0.982;2023-05-10T00:52:51;3.03;;;1.60;;
53549;SDS011;67273;52.914;-0.982;2023-05-10T00:55:19;3.97;;;2.13;;
53549;SDS011;67273;52.914;-0.982;2023-05-10T00:57:47;3.70;;;1.98;;
53549;SDS011;67273;52.914;-0.982;2023-05-10T01:00:13;4.05;;;2.22;;
53549;SDS011;67273;52.914;-0.982;2023-05-10T01:02:43;2.97;;;1.70;;
53549;SDS011;67273;52.914;-0.982;2023-05-10T01:05:09;3.30;;;2.08;;
53549;SDS011;67273;52.914;-0.982;2023-05-10T01:07:35;2.80;;;1.80;;
53549;SDS011;67273;52.914;-0.982;2023-05-10T01:10:02;3.78;;;1.95;;
53549;SDS011;67273;52.914;-0.982;2023-05-10T01:12:28;5.30;;;2.10;;
53549;SDS011;67273;52.914;-0.982;2023-05-10T01:14:55;5.40;;;1.85;;
53549;SDS011;67273;52.914;-0.982;2023-05-10T01:17:21;4.30;;;2.08;;
53549;SDS011;67273;52.914;-0.982;2023-05-10T01:19:48;3.40;;;1.75;;
53549;SDS011;67273;52.914;-0.982;2023-05-10T01:22:19;4.68;;;2.30;;
53549;SDS011;67273;52.914;-0.982;2023-05-10T01:25:12;3.38;;;1.88;;
53549;SDS011;67273;52.914;-0.982;2023-05-10T01:28:07;4.78;;;1.92;;
53549;SDS011;67273;52.914;-0.982;2023-05-10T01:31:00;3.40;;;1.90;;
53549;SDS011;67273;52.914;-0.982;2023-05-10T01:33:34;3.83;;;1.75;;
53549;SDS011;67273;52.914;-0.982;2023-05-10T01:36:05;2.92;;;1.77;;
53549;SDS011;67273;52.914;-0.982;2023-05-10T01:38:36;4.13;;;1.77;;
53549;SDS011;67273;52.914;-0.982;2023-05-10T01:41:09;2.60;;;1.73;;
53549;SDS011;67273;52.914;-0.982;2023-05-10T01:43:43;4.07;;;1.90;;
53549;SDS011;67273;52.914;-0.982;2023-05-10T01:46:16;3.15;;;1.75;;
53549;SDS011;67273;52.914;-0.982;2023-05-10T01:48:48;3.50;;;1.83;;
53549;SDS011;67273;52.914;-0.982;2023-05-10T01:51:19;4.40;;;2.00;;
53549;SDS011;67273;52.914;-0.982;2023-05-10T01:53:49;4.65;;;1.85;;
53549;SDS011;67273;52.914;-0.982;2023-05-10T01:56:16;2.95;;;1.65;;
53549;SDS011;67273;52.914;-0.982;2023-05-10T01:58:46;4.82;;;1.90;;
53549;SDS011;67273;52.914;-0.982;2023-05-10T02:01:15;4.38;;;1.73;;
53549;SDS011;67273;52.914;-0.982;2023-05-10T02:03:45;2.50;;;1.65;;
53549;SDS011;67273;52.914;-0.982;2023-05-10T02:06:15;4.05;;;2.00;;
53549;SDS011;67273;52.914;-0.982;2023-05-10T02:08:43;4.32;;;2.10;;
53549;SDS011;67273;52.914;-0.982;2023-05-10T02:11:12;3.00;;;1.67;;
53549;SDS011;67273;52.914;-0.982;2023-05-10T02:13:41;3.60;;;1.67;;
53549;SDS011;67273;52.914;-0.982;2023-05-10T02:16:11;4.80;;;2.30;;
53549;SDS011;67273;52.914;-0.982;2023-05-10T02:18:39;4.68;;;1.98;;
53549;SDS011;67273;52.914;-0.982;2023-05-10T02:21:10;4.82;;;1.90;;
53549;SDS011;67273;52.914;-0.982;2023-05-10T02:23:41;2.67;;;1.67;;
53549;SDS011;67273;52.914;-0.982;2023-05-10T02:26:12;4.07;;;1.80;;
53549;SDS011;67273;52.914;-0.982;2023-05-10T02:28:42;3.85;;;1.67;;
53549;SDS011;67273;52.914;-0.982;2023-05-10T02:31:11;4.05;;;1.92;;
53549;SDS011;67273;52.914;-0.982;2023-05-10T02:33:40;3.65;;;1.90;;
53549;SDS011;67273;52.914;-0.982;2023-05-10T02:36:10;3.78;;;1.80;;
53549;SDS011;67273;52.914;-0.982;2023-05-10T02:38:42;3.38;;;1.70;;
53549;SDS011;67273;52.914;-0.982;2023-05-10T02:41:12;2.97;;;1.70;;
53549;SDS011;67273;52.914;-0.982;2023-05-10T02:43:41;4.88;;;1.90;;
53549;SDS011;67273;52.914;-0.982;2023-05-10T02:46:13;3.45;;;1.60;;
53549;SDS011;67273;52.914;-0.982;2023-05-10T02:48:42;3.40;;;1.70;;
53549;SDS011;67273;52.914;-0.982;2023-05-10T02:51:12;3.75;;;1.92;;
53549;SDS011;67273;52.914;-0.982;2023-05-10T02:53:46;3.28;;;1.77;;
53549;SDS011;67273;52.914;-0.982;2023-05-10T02:56:18;3.10;;;1.77;;
53549;SDS011;67273;52.914;-0.982;2023-05-10T02:58:49;4.10;;;1.95;;
53549;SDS011;67273;52.914;-0.982;2023-05-10T03:01:15;4.68;;;1.80;;
53549;SDS011;67273;52.914;-0.982;2023-05-10T03:03:41;3.55;;;1.80;;
53549;SDS011;67273;52.914;-0.982;2023-05-10T03:06:07;4.47;;;1.98;;
53549;SDS011;67273;52.914;-0.982;2023-05-10T03:08:34;5.50;;;1.92;;
53549;SDS011;67273;52.914;-0.982;2023-05-10T03:11:10;4.13;;;1.92;;
53549;SDS011;67273;52.914;-0.982;2023-05-10T03:13:51;4.13;;;1.60;;
53549;SDS011;67273;52.914;-0.982;2023-05-10T03:16:29;3.38;;;1.80;;
53549;SDS011;67273;52.914;-0.982;2023-05-10T03:19:02;2.85;;;1.60;;
53549;SDS011;67273;52.914;-0.982;2023-05-10T03:21:36;4.72;;;1.80;;
53549;SDS011;67273;52.914;-0.982;2023-05-10T03:24:09;2.97;;;1.58;;
53549;SDS011;67273;52.914;-0.982;2023-05-10T03:26:41;3.67;;;1.90;;
53549;SDS011;67273;52.914;-0.982;2023-05-10T03:29:15;2.92;;;1.52;;
53549;SDS011;67273;52.914;-0.982;2023-05-10T03:31:43;3.70;;;1.80;;
53549;SDS011;67273;52.914;-0.982;2023-05-10T03:34:13;2.95;;;1.55;;
53549;SDS011;67273;52.914;-0.982;2023-05-10T03:36:40;2.67;;;1.63;;
53549;SDS011;67273;52.914;-0.982;2023-05-10T03:39:06;3.67;;;2.05;;
53549;SDS011;67273;52.914;-0.982;2023-05-10T03:41:35;3.65;;;1.65;;
53549;SDS011;67273;52.914;-0.982;2023-05-10T03:44:03;3.47;;;1.67;;
53549;SDS011;67273;52.914;-0.982;2023-05-10T03:46:32;4.82;;;2.10;;
53549;SDS011;67273;52.914;-0.982;2023-05-10T03:49:01;4.78;;;1.85;;
53549;SDS011;67273;52.914;-0.982;2023-05-10T03:51:27;4.70;;;1.90;;
53549;SDS011;67273;52.914;-0.982;2023-05-10T03:53:53;3.90;;;1.90;;
53549;SDS011;67273;52.914;-0.982;2023-05-10T03:56:19;3.85;;;1.83;;
53549;SDS011;67273;52.914;-0.982;2023-05-10T03:58:47;4.32;;;1.90;;
53549;SDS011;67273;52.914;-0.982;2023-05-10T04:01:13;4.90;;;1.83;;
53549;SDS011;67273;52.914;-0.982;2023-05-10T04:03:39;3.60;;;1.90;;
53549;SDS011;67273;52.914;-0.982;2023-05-10T04:06:04;3.45;;;1.80;;
53549;SDS011;67273;52.914;-0.982;2023-05-10T04:08:32;3.72;;;1.80;;
53549;SDS011;67273;52.914;-0.982;2023-05-10T04:11:04;3.53;;;1.88;;
53549;SDS011;67273;52.914;-0.982;2023-05-10T04:13:31;3.13;;;1.60;;
53549;SDS011;67273;52.914;-0.982;2023-05-10T04:15:59;2.88;;;1.45;;
53549;SDS011;67273;52.914;-0.982;2023-05-10T04:18:26;3.67;;;1.80;;
53549;SDS011;67273;52.914;-0.982;2023-05-10T04:20:52;2.53;;;1.50;;
53549;SDS011;67273;52.914;-0.982;2023-05-10T04:23:18;3.35;;;1.88;;
53549;SDS011;67273;52.914;-0.982;2023-05-10T04:25:43;3.22;;;1.77;;
53549;SDS011;67273;52.914;-0.982;2023-05-10T04:28:09;2.90;;;1.73;;
53549;SDS011;67273;52.914;-0.982;2023-05-10T04:30:35;3.28;;;1.58;;
53549;SDS011;67273;52.914;-0.982;2023-05-10T04:33:02;2.95;;;1.80;;
53549;SDS011;67273;52.914;-0.982;2023-05-10T04:35:28;4.25;;;1.92;;
53549;SDS011;67273;52.914;-0.982;2023-05-10T04:37:54;4.43;;;2.17;;
53549;SDS011;67273;52.914;-0.982;2023-05-10T04:40:20;3.58;;;1.98;;
53549;SDS011;67273;52.914;-0.982;2023-05-10T04:42:46;3.90;;;1.92;;
53549;SDS011;67273;52.914;-0.982;2023-05-10T04:45:14;4.15;;;1.98;;
53549;SDS011;67273;52.914;-0.982;2023-05-10T04:47:42;4.28;;;1.80;;
53549;SDS011;67273;52.914;-0.982;2023-05-10T04:50:09;3.63;;;1.80;;
53549;SDS011;67273;52.914;-0.982;2023-05-10T04:52:35;3.47;;;1.83;;
53549;SDS011;67273;52.914;-0.982;2023-05-10T04:55:02;3.88;;;2.00;;
53549;SDS011;67273;52.914;-0.982;2023-05-10T04:57:30;3.65;;;1.85;;
53549;SDS011;67273;52.914;-0.982;2023-05-10T04:59:55;4.03;;;2.20;;
53549;SDS011;67273;52.914;-0.982;2023-05-10T05:02:22;3.53;;;1.60;;
53549;SDS011;67273;52.914;-0.982;2023-05-10T05:04:48;3.88;;;1.90;;
53549;SDS011;67273;52.914;-0.982;2023-05-10T05:07:16;3.90;;;2.00;;
53549;SDS011;67273;52.914;-0.982;2023-05-10T05:09:41;3.88;;;1.85;;
53549;SDS011;67273;52.914;-0.982;2023-05-10T05:12:07;3.47;;;1.80;;
53549;SDS011;67273;52.914;-0.982;2023-05-10T05:14:33;3.00;;;1.90;;
53549;SDS011;67273;52.914;-0.982;2023-05-10T05:16:59;3.22;;;1.63;;
53549;SDS011;67273;52.914;-0.982;2023-05-10T05:19:25;3.75;;;1.88;;
53549;SDS011;67273;52.914;-0.982;2023-05-10T05:21:51;5.22;;;2.15;;
53549;SDS011;67273;52.914;-0.982;2023-05-10T05:24:18;2.22;;;1.60;;
53549;SDS011;67273;52.914;-0.982;2023-05-10T05:26:43;4.40;;;1.90;;
53549;SDS011;67273;52.914;-0.982;2023-05-10T05:29:09;3.70;;;1.63;;
53549;SDS011;67273;52.914;-0.982;2023-05-10T05:31:35;4.45;;;1.90;;
53549;SDS011;67273;52.914;-0.982;2023-05-10T05:34:01;2.90;;;1.67;;
53549;SDS011;67273;52.914;-0.982;2023-05-10T05:36:26;4.35;;;2.00;;
53549;SDS011;67273;52.914;-0.982;2023-05-10T05:38:52;3.70;;;1.70;;
53549;SDS011;67273;52.914;-0.982;2023-05-10T05:41:19;4.13;;;2.10;;
53549;SDS011;67273;52.914;-0.982;2023-05-10T05:43:46;3.75;;;1.90;;
53549;SDS011;67273;52.914;-0.982;2023-05-10T05:46:12;3.25;;;1.63;;
53549;SDS011;67273;52.914;-0.982;2023-05-10T05:48:38;3.67;;;1.70;;
53549;SDS011;67273;52.914;-0.982;2023-05-10T05:51:03;4.85;;;1.80;;
53549;SDS011;67273;52.914;-0.982;2023-05-10T05:53:29;3.65;;;1.70;;
53549;SDS011;67273;52.914;-0.982;2023-05-10T05:55:55;4.40;;;1.92;;
53549;SDS011;67273;52.914;-0.982;2023-05-10T05:58:24;4.43;;;2.05;;
53549;SDS011;67273;52.914;-0.982;2023-05-10T06:00:50;3.45;;;1.90;;
53549;SDS011;67273;52.914;-0.982;2023-05-10T06:03:17;3.67;;;2.00;;
53549;SDS011;67273;52.914;-0.982;2023-05-10T06:05:42;4.00;;;2.00;;
53549;SDS011;67273;52.914;-0.982;2023-05-10T06:08:09;4.82;;;2.08;;
53549;SDS011;67273;52.914;-0.982;2023-05-10T06:10:35;4.45;;;1.90;;
53549;SDS011;67273;52.914;-0.982;2023-05-10T06:13:01;4.00;;;1.90;;
53549;SDS011;67273;52.914;-0.982;2023-05-10T06:15:28;4.15;;;1.85;;
53549;SDS011;67273;52.914;-0.982;2023-05-10T06:17:53;3.45;;;1.80;;
53549;SDS011;67273;52.914;-0.982;2023-05-10T06:20:19;4.38;;;2.40;;
53549;SDS011;67273;52.914;-0.982;2023-05-10T06:22:45;5.95;;;2.45;;
53549;SDS011;67273;52.914;-0.982;2023-05-10T06:25:11;8.02;;;1.88;;
53549;SDS011;67273;52.914;-0.982;2023-05-10T06:27:37;3.28;;;1.90;;
53549;SDS011;67273;52.914;-0.982;2023-05-10T06:30:03;4.20;;;2.30;;
53549;SDS011;67273;52.914;-0.982;2023-05-10T06:32:31;4.75;;;2.40;;
53549;SDS011;67273;52.914;-0.982;2023-05-10T06:34:57;6.57;;;2.38;;
53549;SDS011;67273;52.914;-0.982;2023-05-10T06:37:23;4.88;;;2.35;;
53549;SDS011;67273;52.914;-0.982;2023-05-10T06:39:49;4.65;;;1.98;;
53549;SDS011;67273;52.914;-0.982;2023-05-10T06:42:14;6.47;;;2.38;;
53549;SDS011;67273;52.914;-0.982;2023-05-10T06:44:45;5.45;;;2.50;;
53549;SDS011;67273;52.914;-0.982;2023-05-10T06:47:10;4.70;;;2.15;;
53549;SDS011;67273;52.914;-0.982;2023-05-10T06:49:37;4.60;;;2.38;;
53549;SDS011;67273;52.914;-0.982;2023-05-10T06:52:04;5.13;;;2.50;;
53549;SDS011;67273;52.914;-0.982;2023-05-10T06:54:29;3.80;;;1.90;;
53549;SDS011;67273;52.914;-0.982;2023-05-10T06:56:56;5.80;;;2.67;;
53549;SDS011;67273;52.914;-0.982;2023-05-10T06:59:23;3.97;;;2.22;;
53549;SDS011;67273;52.914;-0.982;2023-05-10T07:01:49;5.40;;;2.30;;
53549;SDS011;67273;52.914;-0.982;2023-05-10T07:04:15;3.83;;;2.30;;
53549;SDS011;67273;52.914;-0.982;2023-05-10T07:06:42;4.55;;;2.20;;
53549;SDS011;67273;52.914;-0.982;2023-05-10T07:09:07;3.72;;;2.13;;
53549;SDS011;67273;52.914;-0.982;2023-05-10T07:11:34;3.22;;;1.85;;
53549;SDS011;67273;52.914;-0.982;2023-05-10T07:14:04;4.13;;;2.20;;
53549;SDS011;67273;52.914;-0.982;2023-05-10T07:16:32;3.58;;;2.10;;
53549;SDS011;67273;52.914;-0.982;2023-05-10T07:19:01;3.35;;;1.80;;
53549;SDS011;67273;52.914;-0.982;2023-05-10T07:21:29;3.13;;;2.03;;
53549;SDS011;67273;52.914;-0.982;2023-05-10T07:23:59;3.47;;;1.90;;
53549;SDS011;67273;52.914;-0.982;2023-05-10T07:26:28;3.75;;;2.15;;
53549;SDS011;67273;52.914;-0.982;2023-05-10T07:28:56;3.50;;;1.90;;
53549;SDS011;67273;52.914;-0.982;2023-05-10T07:31:23;3.33;;;1.77;;
53549;SDS011;67273;52.914;-0.982;2023-05-10T07:33:51;4.03;;;1.98;;
53549;SDS011;67273;52.914;-0.982;2023-05-10T07:36:17;3.08;;;1.98;;
53549;SDS011;67273;52.914;-0.982;2023-05-10T07:38:43;3.05;;;1.80;;
53549;SDS011;67273;52.914;-0.982;2023-05-10T07:41:15;4.68;;;2.20;;
53549;SDS011;67273;52.914;-0.982;2023-05-10T07:43:44;3.70;;;1.90;;
53549;SDS011;67273;52.914;-0.982;2023-05-10T07:46:13;2.95;;;1.70;;
53549;SDS011;67273;52.914;-0.982;2023-05-10T07:48:44;3.45;;;2.05;;
53549;SDS011;67273;52.914;-0.982;2023-05-10T07:51:12;3.10;;;1.95;;
53549;SDS011;67273;52.914;-0.982;2023-05-10T07:53:42;3.30;;;1.90;;
53549;SDS011;67273;52.914;-0.982;2023-05-10T07:56:24;3.90;;;2.03;;
53549;SDS011;67273;52.914;-0.982;2023-05-10T07:58:54;3.28;;;1.90;;
53549;SDS011;67273;52.914;-0.982;2023-05-10T08:01:22;3.90;;;1.95;;
53549;SDS011;67273;52.914;-0.982;2023-05-10T08:03:48;2.88;;;1.77;;
53549;SDS011;67273;52.914;-0.982;2023-05-10T08:06:16;3.05;;;1.85;;
53549;SDS011;67273;52.914;-0.982;2023-05-10T08:08:42;3.47;;;1.95;;
53549;SDS011;67273;52.914;-0.982;2023-05-10T08:11:08;3.40;;;2.00;;
53549;SDS011;67273;52.914;-0.982;2023-05-10T08:13:35;3.53;;;2.00;;
53549;SDS011;67273;52.914;-0.982;2023-05-10T08:16:01;3.38;;;1.75;;
53549;SDS011;67273;52.914;-0.982;2023-05-10T08:18:27;3.17;;;1.80;;
53549;SDS011;67273;52.914;-0.982;2023-05-10T08:20:54;2.67;;;1.70;;
53549;SDS011;67273;52.914;-0.982;2023-05-10T08:23:20;3.33;;;1.92;;
53549;SDS011;67273;52.914;-0.982;2023-05-10T08:25:47;3.28;;;1.73;;
53549;SDS011;67273;52.914;-0.982;2023-05-10T08:28:15;3.47;;;1.75;;
53549;SDS011;67273;52.914;-0.982;2023-05-10T08:30:42;3.35;;;1.55;;
53549;SDS011;67273;52.914;-0.982;2023-05-10T08:33:09;3.42;;;1.80;;
53549;SDS011;67273;52.914;-0.982;2023-05-10T08:35:37;3.42;;;1.77;;
53549;SDS011;67273;52.914;-0.982;2023-05-10T08:38:04;2.97;;;1.85;;
53549;SDS011;67273;52.914;-0.982;2023-05-10T08:40:30;2.35;;;1.58;;
53549;SDS011;67273;52.914;-0.982;2023-05-10T08:42:58;3.15;;;1.60;;
53549;SDS011;67273;52.914;-0.982;2023-05-10T08:45:33;3.47;;;1.80;;
53549;SDS011;67273;52.914;-0.982;2023-05-10T08:48:06;3.55;;;1.90;;
53549;SDS011;67273;52.914;-0.982;2023-05-10T08:50:36;2.53;;;1.70;;
53549;SDS011;67273;52.914;-0.982;2023-05-10T08:53:04;2.55;;;1.60;;
53549;SDS011;67273;52.914;-0.982;2023-05-10T08:55:32;4.05;;;1.90;;
53549;SDS011;67273;52.914;-0.982;2023-05-10T08:58:00;3.67;;;1.73;;
53549;SDS011;67273;52.914;-0.982;2023-05-10T09:00:29;3.22;;;1.60;;
53549;SDS011;67273;52.914;-0.982;2023-05-10T09:02:57;3.38;;;1.55;;
53549;SDS011;67273;52.914;-0.982;2023-05-10T09:05:27;3.05;;;1.70;;
53549;SDS011;67273;52.914;-0.982;2023-05-10T09:07:57;3.20;;;1.45;;
53549;SDS011;67273;52.914;-0.982;2023-05-10T09:10:27;2.88;;;1.55;;
53549;SDS011;67273;52.914;-0.982;2023-05-10T09:12:55;3.65;;;1.60;;
53549;SDS011;67273;52.914;-0.982;2023-05-10T09:15:24;3.78;;;1.90;;
53549;SDS011;67273;52.914;-0.982;2023-05-10T09:17:51;3.50;;;1.70;;
53549;SDS011;67273;52.914;-0.982;2023-05-10T09:20:17;2.60;;;1.52;;
53549;SDS011;67273;52.914;-0.982;2023-05-10T09:22:45;2.58;;;1.60;;
53549;SDS011;67273;52.914;-0.982;2023-05-10T09:25:13;1.90;;;1.40;;
53549;SDS011;67273;52.914;-0.982;2023-05-10T09:27:44;2.65;;;1.48;;
53549;SDS011;67273;52.914;-0.982;2023-05-10T09:30:15;3.78;;;1.63;;
53549;SDS011;67273;52.914;-0.982;2023-05-10T09:32:44;2.53;;;1.40;;
53549;SDS011;67273;52.914;-0.982;2023-05-10T09:35:11;3.22;;;1.45;;
53549;SDS011;67273;52.914;-0.982;2023-05-10T09:37:40;1.98;;;1.30;;
53549;SDS011;67273;52.914;-0.982;2023-05-10T09:40:12;4.25;;;1.80;;
53549;SDS011;67273;52.914;-0.982;2023-05-10T09:42:41;2.35;;;1.50;;
53549;SDS011;67273;52.914;-0.982;2023-05-10T09:45:16;2.58;;;1.45;;
53549;SDS011;67273;52.914;-0.982;2023-05-10T09:47:43;3.33;;;1.58;;
53549;SDS011;67273;52.914;-0.982;2023-05-10T09:50:11;2.67;;;1.58;;
53549;SDS011;67273;52.914;-0.982;2023-05-10T09:52:45;2.90;;;1.50;;
53549;SDS011;67273;52.914;-0.982;2023-05-10T09:55:14;2.97;;;1.50;;
53549;SDS011;67273;52.914;-0.982;2023-05-10T09:57:40;2.47;;;1.35;;
53549;SDS011;67273;52.914;-0.982;2023-05-10T10:00:06;2.70;;;1.52;;
53549;SDS011;67273;52.914;-0.982;2023-05-10T10:02:38;2.67;;;1.20;;
53549;SDS011;67273;52.914;-0.982;2023-05-10T10:05:05;3.20;;;1.60;;
53549;SDS011;67273;52.914;-0.982;2023-05-10T10:07:32;2.65;;;1.75;;
53549;SDS011;67273;52.914;-0.982;2023-05-10T10:09:59;3.22;;;1.65;;
53549;SDS011;67273;52.914;-0.982;2023-05-10T10:12:27;2.88;;;1.40;;
53549;SDS011;67273;52.914;-0.982;2023-05-10T10:14:53;2.85;;;1.33;;
53549;SDS011;67273;52.914;-0.982;2023-05-10T10:17:21;4.25;;;1.70;;
53549;SDS011;67273;52.914;-0.982;2023-05-10T10:19:46;2.42;;;1.35;;
53549;SDS011;67273;52.914;-0.982;2023-05-10T10:22:14;1.70;;;1.20;;
53549;SDS011;67273;52.914;-0.982;2023-05-10T10:24:40;3.33;;;1.58;;
53549;SDS011;67273;52.914;-0.982;2023-05-10T10:27:11;3.17;;;1.50;;
53549;SDS011;67273;52.914;-0.982;2023-05-10T10:29:49;5.05;;;1.45;;
53549;SDS011;67273;52.914;-0.982;2023-05-10T10:32:35;2.63;;;1.33;;
53549;SDS011;67273;52.914;-0.982;2023-05-10T10:35:20;3.13;;;1.33;;
53549;SDS011;67273;52.914;-0.982;2023-05-10T10:37:47;2.83;;;1.50;;
53549;SDS011;67273;52.914;-0.982;2023-05-10T10:40:25;3.40;;;1.20;;
53549;SDS011;67273;52.914;-0.982;2023-05-10T10:42:52;2.88;;;1.30;;
53549;SDS011;67273;52.914;-0.982;2023-05-10T10:45:20;3.55;;;1.30;;
53549;SDS011;67273;52.914;-0.982;2023-05-10T10:47:47;2.42;;;1.38;;
53549;SDS011;67273;52.914;-0.982;2023-05-10T10:50:13;1.95;;;1.10;;
53549;SDS011;67273;52.914;-0.982;2023-05-10T10:52:41;2.67;;;1.30;;
53549;SDS011;67273;52.914;-0.982;2023-05-10T10:55:08;3.03;;;1.33;;
53549;SDS011;67273;52.914;-0.982;2023-05-10T10:57:45;3.03;;;1.30;;
53549;SDS011;67273;52.914;-0.982;2023-05-10T11:00:21;1.48;;;1.13;;
53549;SDS011;67273;52.914;-0.982;2023-05-10T11:02:49;2.40;;;1.20;;
53549;SDS011;67273;52.914;-0.982;2023-05-10T11:05:23;2.15;;;1.20;;
53549;SDS011;67273;52.914;-0.982;2023-05-10T11:07:51;2.10;;;1.10;;
53549;SDS011;67273;52.914;-0.982;2023-05-10T11:10:19;2.00;;;1.20;;
53549;SDS011;67273;52.914;-0.982;2023-05-10T11:12:52;2.83;;;1.40;;
53549;SDS011;67273;52.914;-0.982;2023-05-10T11:17:53;1.52;;;0.90;;
53549;SDS011;67273;52.914;-0.982;2023-05-10T11:20:20;1.75;;;1.10;;
53549;SDS011;67273;52.914;-0.982;2023-05-10T11:22:49;1.73;;;0.95;;
53549;SDS011;67273;52.914;-0.982;2023-05-10T11:25:18;2.85;;;1.27;;
53549;SDS011;67273;52.914;-0.982;2023-05-10T11:27:44;2.03;;;1.10;;
53549;SDS011;67273;52.914;-0.982;2023-05-10T11:30:12;2.03;;;1.30;;
53549;SDS011;67273;52.914;-0.982;2023-05-10T11:32:41;1.85;;;1.20;;
53549;SDS011;67273;52.914;-0.982;2023-05-10T11:35:07;1.40;;;1.02;;
53549;SDS011;67273;52.914;-0.982;2023-05-10T11:37:33;1.17;;;0.93;;
53549;SDS011;67273;52.914;-0.982;2023-05-10T11:39:59;2.60;;;1.15;;
53549;SDS011;67273;52.914;-0.982;2023-05-10T11:42:26;2.72;;;1.25;;
53549;SDS011;67273;52.914;-0.982;2023-05-10T11:44:52;2.70;;;1.48;;
53549;SDS011;67273;52.914;-0.982;2023-05-10T11:47:18;2.30;;;1.02;;
53549;SDS011;67273;52.914;-0.982;2023-05-10T11:49:45;1.52;;;1.00;;
53549;SDS011;67273;52.914;-0.982;2023-05-10T11:52:11;1.15;;;1.00;;
53549;SDS011;67273;52.914;-0.982;2023-05-10T11:54:37;2.05;;;1.08;;
53549;SDS011;67273;52.914;-0.982;2023-05-10T11:57:09;1.13;;;0.90;;
53549;SDS011;67273;52.914;-0.982;2023-05-10T11:59:36;2.13;;;1.10;;
53549;SDS011;67273;52.914;-0.982;2023-05-10T12:02:02;1.27;;;0.90;;
53549;SDS011;67273;52.914;-0.982;2023-05-10T12:04:28;1.88;;;1.10;;
53549;SDS011;67273;52.914;-0.982;2023-05-10T12:06:56;1.38;;;1.00;;
53549;SDS011;67273;52.914;-0.982;2023-05-10T12:09:22;2.10;;;1.30;;
53549;SDS011;67273;52.914;-0.982;2023-05-10T12:11:48;1.95;;;1.00;;
53549;SDS011;67273;52.914;-0.982;2023-05-10T12:14:14;1.77;;;0.98;;
53549;SDS011;67273;52.914;-0.982;2023-05-10T12:16:42;2.70;;;1.10;;
53549;SDS011;67273;52.914;-0.982;2023-05-10T12:19:08;1.80;;;0.90;;
53549;SDS011;67273;52.914;-0.982;2023-05-10T12:21:34;1.30;;;0.82;;
53549;SDS011;67273;52.914;-0.982;2023-05-10T12:24:02;1.30;;;1.00;;
53549;SDS011;67273;52.914;-0.982;2023-05-10T12:26:28;1.52;;;0.95;;
53549;SDS011;67273;52.914;-0.982;2023-05-10T12:28:54;1.70;;;0.85;;
53549;SDS011;67273;52.914;-0.982;2023-05-10T12:31:20;0.95;;;0.80;;
53549;SDS011;67273;52.914;-0.982;2023-05-10T12:33:46;0.82;;;0.82;;
53549;SDS011;67273;52.914;-0.982;2023-05-10T12:36:14;1.42;;;0.80;;
53549;SDS011;67273;52.914;-0.982;2023-05-10T12:38:41;1.50;;;0.80;;
53549;SDS011;67273;52.914;-0.982;2023-05-10T12:41:10;1.35;;;0.88;;
53549;SDS011;67273;52.914;-0.982;2023-05-10T12:43:36;1.80;;;0.82;;
53549;SDS011;67273;52.914;-0.982;2023-05-10T12:46:06;1.30;;;1.10;;
53549;SDS011;67273;52.914;-0.982;2023-05-10T12:48:34;1.80;;;1.15;;
53549;SDS011;67273;52.914;-0.982;2023-05-10T12:51:00;1.55;;;0.73;;
53549;SDS011;67273;52.914;-0.982;2023-05-10T12:53:26;1.65;;;0.85;;
53549;SDS011;67273;52.914;-0.982;2023-05-10T12:55:52;1.08;;;0.70;;
53549;SDS011;67273;52.914;-0.982;2023-05-10T12:58:19;1.30;;;0.88;;
53549;SDS011;67273;52.914;-0.982;2023-05-10T13:00:45;1.05;;;0.80;;
53549;SDS011;67273;52.914;-0.982;2023-05-10T13:03:11;1.50;;;0.90;;
53549;SDS011;67273;52.914;-0.982;2023-05-10T13:05:37;1.73;;;0.88;;
53549;SDS011;67273;52.914;-0.982;2023-05-10T13:08:03;1.73;;;1.10;;
53549;SDS011;67273;52.914;-0.982;2023-05-10T13:10:30;1.65;;;0.70;;
53549;SDS011;67273;52.914;-0.982;2023-05-10T13:12:56;1.52;;;0.85;;
53549;SDS011;67273;52.914;-0.982;2023-05-10T13:15:24;1.02;;;0.80;;
53549;SDS011;67273;52.914;-0.982;2023-05-10T13:17:51;1.35;;;0.77;;
53549;SDS011;67273;52.914;-0.982;2023-05-10T13:20:17;1.38;;;0.90;;
53549;SDS011;67273;52.914;-0.982;2023-05-10T13:22:43;2.03;;;1.02;;
53549;SDS011;67273;52.914;-0.982;2023-05-10T13:25:09;1.15;;;0.90;;
53549;SDS011;67273;52.914;-0.982;2023-05-10T13:27:37;2.08;;;1.05;;
53549;SDS011;67273;52.914;-0.982;2023-05-10T13:30:08;1.52;;;0.80;;
53549;SDS011;67273;52.914;-0.982;2023-05-10T13:32:40;1.38;;;0.98;;
53549;SDS011;67273;52.914;-0.982;2023-05-10T13:35:08;0.95;;;0.68;;
53549;SDS011;67273;52.914;-0.982;2023-05-10T13:37:34;0.65;;;0.65;;
53549;SDS011;67273;52.914;-0.982;2023-05-10T13:40:02;1.13;;;0.73;;
53549;SDS011;67273;52.914;-0.982;2023-05-10T13:42:30;0.98;;;0.68;;
53549;SDS011;67273;52.914;-0.982;2023-05-10T13:44:58;2.38;;;0.85;;
53549;SDS011;67273;52.914;-0.982;2023-05-10T13:47:24;1.35;;;0.80;;
53549;SDS011;67273;52.914;-0.982;2023-05-10T13:49:51;1.48;;;0.80;;
53549;SDS011;67273;52.914;-0.982;2023-05-10T13:52:16;1.55;;;0.95;;
53549;SDS011;67273;52.914;-0.982;2023-05-10T13:54:42;1.95;;;1.13;;
53549;SDS011;67273;52.914;-0.982;2023-05-10T13:57:08;2.30;;;0.88;;
53549;SDS011;67273;52.914;-0.982;2023-05-10T13:59:34;2.08;;;1.00;;
53549;SDS011;67273;52.914;-0.982;2023-05-10T14:01:59;1.48;;;1.00;;
53549;SDS011;67273;52.914;-0.982;2023-05-10T14:04:27;2.78;;;0.90;;
53549;SDS011;67273;52.914;-0.982;2023-05-10T14:06:54;2.53;;;1.00;;
53549;SDS011;67273;52.914;-0.982;2023-05-10T14:09:20;0.80;;;0.80;;
53549;SDS011;67273;52.914;-0.982;2023-05-10T14:11:46;1.23;;;1.00;;
53549;SDS011;67273;52.914;-0.982;2023-05-10T14:14:12;1.85;;;0.95;;
53549;SDS011;67273;52.914;-0.982;2023-05-10T14:16:41;2.40;;;0.95;;
53549;SDS011;67273;52.914;-0.982;2023-05-10T14:19:09;1.38;;;0.93;;
53549;SDS011;67273;52.914;-0.982;2023-05-10T14:21:35;1.33;;;0.90;;
53549;SDS011;67273;52.914;-0.982;2023-05-10T14:24:02;2.15;;;0.90;;
53549;SDS011;67273;52.914;-0.982;2023-05-10T14:26:28;1.65;;;1.02;;
53549;SDS011;67273;52.914;-0.982;2023-05-10T14:28:54;2.10;;;1.00;;
53549;SDS011;67273;52.914;-0.982;2023-05-10T14:31:19;1.85;;;1.00;;
53549;SDS011;67273;52.914;-0.982;2023-05-10T14:33:49;2.08;;;1.00;;
53549;SDS011;67273;52.914;-0.982;2023-05-10T14:36:15;2.50;;;0.90;;
53549;SDS011;67273;52.914;-0.982;2023-05-10T14:38:41;1.30;;;0.90;;
53549;SDS011;67273;52.914;-0.982;2023-05-10T14:41:08;2.20;;;1.10;;